Asheville Regional Airport
KAVL : now visible

Airfield :











YOU CAN JOIN US ON...

 
LOGIN :

Register | Disclaimer

   EN    FR    IT 

 









Legend :    VFR   Marginal VFR   IFR   Intensive IFR   Very Intensive IFR
Visi :
Ceiling :
>= 8 km
>= 3000ft
5 to 8 km
1000 to 3000 ft
1500m to 5 km
500 to 1000 ft
800 to 1500m
200 to 500 ft
< 800m
< 200 ft
Symbols :   Thunderstorms  Fog  Heavy snow  Heavy precipitations  Wind > 20 kt






- Airport Elevation : 2165 ft
- IATA code : AVL


KAVL - Asheville Regional

CURRENT METAR :
  • 161912Z VRB03KT 10SM SCT023 BKN060 OVC070 22/18 A3015 RMK AO2 T02220178

EXPIRED METARs :
  • 161854Z 13004KT 10SM BKN021 BKN027 OVC033 22/17 A3015 RMK AO2 RAE1758B41E51 SLP190 P0000 T02170172
  • 161754Z VRB03KT 10SM -RA BKN025 OVC060 22/18 A3017 RMK AO2 SLP196 P0000 60001 T02170178 10217 20178 58002
  • 161654Z 00000KT 10SM -RA FEW017 BKN039 OVC080 21/18 A3018 RMK AO2 RAB41 SLP199 P0000 T02060183
  • 161632Z 16003KT 10SM SCT009 BKN021 21/18 A3018 RMK AO2 T02060183

TAF KAVL
Valid from the 16 at 18:00 until the 17 at 18:00 UTC


161730Z 1618/1718 16004KT P6SM VCSH SCT025 BKN040
TEMPO 1618/1622 6SM -SHRA BR BKN025 OVC040
FM170000 13003KT P6SM VCSH BKN035
FM170600 VRB02KT 3SM BR BKN005
TEMPO 1708/1712 1/2SM FG BKN002
FM171400 34003KT P6SM BKN035
PROB30 1715/1718 4SM -SHRA BR OVC025
KZTL FIR / North America



MET'MAP, your aeronautical weather chart ! - Copyright ORBIFLY December 2007 - Disclaimer

ORBIFLY MET'MAP TEAM :

Programming & Development : Alexandra Zaïnal
Concept & original design : Baudouin d'Aumeries
Assistance for programming : Marc-Olivier Méhu
Technical & hardware support : Manuel Goepfert

Contact : metmap@orbifly.com




SOURCES & CREDITS :

   NOAA       Earth
Advisory